Ringgold, Nebraska
Current Conditions -  °F | °C
As of 4:01 AM on Friday 19 Dec 2014 (Local Time) from KLBF Reporting Station
Haze Haze  
Wind Chill: 15°   Ceiling: Unl
Heat Index: 15°   Visibility: 5mi
Dew Point:   Wind: 0mph
Humidity: 77%   Direction: NA
Pressure: 30.09"   Gusts: NA
Location:  41.5681°N, 101.06°W
Report Text: KLBF 191001Z AUTO 00000KT 5SM HZ CLR M09/M13 A3009 RMK AO2 T10941128
Loading
Personal Weather Stations






























Interactive Weather Map New forecast layout! Learn more

10-Day Weather Forecast

Advertisements
Track Severe Weather on mobile